Polk Army Air Field
KPOE : now visible

Airfield :











YOU CAN JOIN US ON...

 
LOGIN :

Register | Disclaimer

   EN    FR    IT 

 









Legend :    VFR   Marginal VFR   IFR   Intensive IFR   Very Intensive IFR
Visi :
Ceiling :
>= 8 km
>= 3000ft
5 to 8 km
1000 to 3000 ft
1500m to 5 km
500 to 1000 ft
800 to 1500m
200 to 500 ft
< 800m
< 200 ft
Symbols :   Thunderstorms  Fog  Heavy snow  Heavy precipitations  Wind > 20 kt






- Airport Elevation : 330 ft


KPOE - Polk Army Air Field

CURRENT METAR :
  • 122258Z AUTO 35008KT 10SM CLR 04/M09 A3038 RMK AO2 SLP292 T00411089

EXPIRED METARs :
  • 122158Z AUTO 36010G17KT 10SM CLR 05/M08 A3037 RMK AO2 SLP289 T00541085
  • 122058Z AUTO 36012G16KT 10SM CLR 06/M08 A3038 RMK AO2 SLP292 T00561085 56013

TAF TAF KPOE
Valid from the 12 at 16:00 until the 13 at 22:00 UTC


121600Z 1216/1322 01015G25KT 9999 FEW200 QNH3041INS
BECMG 1218/1219 36012G18KT 9999 FEW200 QNH3038INS
BECMG 1223/1224 VRB06KT 9999 SKC QNH3017INS TX06/1221Z TNM05/1312Z



MET'MAP, your aeronautical weather chart ! - Copyright ORBIFLY December 2007 - Disclaimer

ORBIFLY MET'MAP TEAM :

Programming & Development : Alexandra Zaïnal
Concept & Development : Baudouin d'Aumeries
Co-Development & Prog : Marc-Olivier Méhu
Technical & hardware support : Manuel Goepfert

Contact : metmap@orbifly.com




SOURCES & CREDITS :

   NOAA       Earth
Advisory